San Antonio, Valles Caldera, New Mexico Weather observations

Data are for 10 minute period ending at time listed.
 Day   Time   Solar   Ave.   Ave.  Ave.  Vector  Max.   Baro.   Total    
  of    of     Rad.   Air    Rel.  Wind   Wind   Wind  Press.  Precip.   
Year   Day            Temp.  Hum.  Speed  Dir.   Gust                    
2017   (MST)  Kw/m2    F      %     mph   deg.    mph    mb.     in.     
-------------------------------------------------------------------------
 112   18:30   0.04   50.3    38    8.5   266    11.3   99999.0    0.00 
 112   18:40   0.01   47.6    45    8.4   261    13.7   99999.0    0.00 
 112   18:50   0.00   46.2    48    6.4   262    10.8   99999.0    0.00 
 112   19:00   0.00   45.2    50    7.1   260    12.5   99999.0    0.00 
 112   19:10   0.00   44.6    52    7.6   260    12.5   99999.0    0.00 
 112   19:20   0.00   43.8    53    7.9   261    15.5   99999.0    0.00 
 112   19:30   0.00   43.4    54    7.3   258    13.1   99999.0    0.00 
 112   19:40   0.00   42.9    54    7.5   260    13.7   99999.0    0.00 
 112   19:50   0.00   42.4    55    8.3   261    14.3   99999.0    0.00 
 112   20:00   0.00   41.8    56    7.9   260    14.9   99999.0    0.00 
 112   20:10   0.00   41.2    57    9.5   261    14.3   99999.0    0.00 
 112   20:20   0.00   40.8    58    9.8   262    16.1   99999.0    0.00 
 112   20:30   0.00   40.2    59   10.0   262    17.9   99999.0    0.00 
 112   20:40   0.00   39.6    60    9.3   263    16.1   99999.0    0.00 
 112   20:50   0.00   39.0    62    9.7   262    17.9   99999.0    0.00 
 112   21:00   0.00   38.4    63    9.2   262    18.5   99999.0    0.00 
 112   21:10   0.00   37.9    64   10.6   264    18.5   99999.0    0.00 
 112   21:20   0.00   37.5    65   10.0   263    19.1   99999.0    0.00 
 112   21:30   0.00   37.2    65   10.4   264    17.9   99999.0    0.00 
 112   21:40   0.00   36.6    66   10.4   265    16.7   99999.0    0.00 
 112   21:50   0.00   36.2    67   11.3   265    15.5   99999.0    0.00 
 112   22:00   0.00   35.8    68    9.6   264    15.5   99999.0    0.00 
 112   22:10   0.00   35.5    69    9.4   265    13.7   99999.0    0.00 
 112   22:20   0.00   35.4    69   10.9   266    16.1   99999.0    0.00 
 112   22:30   0.00   35.1    70   10.6   265    17.3   99999.0    0.00 
 112   22:40   0.00   34.9    71   11.3   266    16.1   99999.0    0.00 
 112   22:50   0.00   34.7    71   11.2   266    16.7   99999.0    0.00 
 112   23:00   0.00   34.5    72   10.7   266    16.7   99999.0    0.00 
 112   23:10   0.00   34.2    72   10.8   268    18.5   99999.0    0.00 
 112   23:20   0.00   34.1    72   11.1   267    16.1   99999.0    0.00 
 112   23:30   0.00   34.0    73   10.6   267    15.5   99999.0    0.00 
 112   23:40   0.00   33.8    73   10.6   269    15.5   99999.0    0.00 
 112   23:50   0.00   33.7    73   10.0   270    16.1   99999.0    0.00 
 113    0:00   0.00   33.8    73   10.6   270    15.5   99999.0    0.00 
 113    0:10   0.00   33.8    73    9.6   268    15.5   99999.0    0.00 
 113    0:20   0.00   33.3    74    9.9   270    14.3   99999.0    0.00 
 113    0:30   0.00   33.1    75    9.7   267    14.9   99999.0    0.00 
 113    0:40   0.00   32.9    75    9.4   266    13.7   99999.0    0.00 
 113    0:50   0.00   33.1    75    9.2   265    13.1   99999.0    0.00 
 113    1:00   0.00   32.9    75    9.1   267    14.9   99999.0    0.00 
 113    1:10   0.00   32.6    76    8.5   269    12.5   99999.0    0.00 
 113    1:20   0.00   32.7    76    8.3   267    14.3   99999.0    0.00 
 113    1:30   0.00   32.6    76    8.6   266    16.1   99999.0    0.00 
 113    1:40   0.00   32.5    76    8.2   266    12.5   99999.0    0.00 
 113    1:50   0.00   31.7    77    8.0   267    12.5   99999.0    0.00 
 113    2:00   0.00   31.5    78    7.4   265    11.9   99999.0    0.00 
 113    2:10   0.00   31.7    77    7.3   267    11.3   99999.0    0.00 
 113    2:20   0.00   32.1    76    7.5   264    13.1   99999.0    0.00 
 113    2:30   0.00   32.7    74    7.7   264    12.5   99999.0    0.00 
 113    2:40   0.00   32.4    75    8.1   265    12.5   99999.0    0.00 
 113    2:50   0.00   32.4    75    8.2   265    11.9   99999.0    0.00 
 113    3:00   0.00   32.3    75    7.8   265    11.9   99999.0    0.00 
 113    3:10   0.00   32.1    75    7.2   264    10.8   99999.0    0.00 
 113    3:20   0.00   31.7    76    7.2   264    11.3   99999.0    0.00 
 113    3:30   0.00   29.9    79    8.9   270    11.9   99999.0    0.00 
 113    3:40   0.00   29.8    80    7.7   266    10.8   99999.0    0.00 
 113    3:50   0.00   30.1    79    7.7   265    10.8   99999.0    0.00 
 113    4:00   0.00   30.0    80    7.4   266    10.8   99999.0    0.00 
 113    4:10   0.00   29.8    80    7.5   264    10.2   99999.0    0.00 
 113    4:20   0.00   29.8    80    7.3   264    10.2   99999.0    0.00 
 113    4:30   0.00   29.3    81    8.0   266    11.3   99999.0    0.00 
 113    4:40   0.00   29.1    81    7.9   265    11.3   99999.0    0.00 
 113    4:50   0.00   29.3    81    8.1   267    12.5   99999.0    0.00 
 113    5:00   0.00   28.4    82    6.6   264     9.6   99999.0    0.00 
 113    5:10   0.00   28.7    82    6.4   264    10.2   99999.0    0.00 
 113    5:20   0.00   28.7    81    6.4   265    10.2   99999.0    0.00 
 113    5:30   0.00   29.2    80    6.6   265    12.5   99999.0    0.00 
 113    5:40   0.01   27.6    81    6.1   264    11.3   99999.0    0.00 
 113    5:50   0.01   28.8    81    7.1   266    10.8   99999.0    0.00 
 113    6:00   0.01   28.2    79    3.0   264     6.6   99999.0    0.00 
 113    6:10   0.02   25.3    83    4.2   264     9.6   99999.0    0.00 
 113    6:20   0.02   24.8    87    2.8   264     7.2   99999.0    0.00 
 113    6:30   0.02   25.9    87    5.4   264    10.2   99999.0    0.00 
 113    6:40   0.05   27.5    84    2.4   264     5.4   99999.0    0.00 
 113    6:50   0.24   32.1    76    1.7   264     3.6   99999.0    0.00 
 113    7:00   0.27   35.5    66    2.5   264     4.2   99999.0    0.00 
 113    7:10   0.31   37.3    64    2.6   264     6.6   99999.0    0.00 
 113    7:20   0.34   38.3    63    2.5   264     4.2   99999.0    0.00 
 113    7:30   0.39   40.9    58    2.1   264     4.2   99999.0    0.00 
 113    7:40   0.42   42.4    56    3.4   264     6.0   99999.0    0.00 
 113    7:50   0.46   43.1    55    4.3   264     7.8   99999.0    0.00 
 113    8:00   0.49   43.8    55    5.1   264     8.4   99999.0    0.00 
 113    8:10   0.53   45.1    53    3.3   264     6.0   99999.0    0.00 
 113    8:20   0.56   49.2    45    3.8   258     9.0   99999.0    0.00 
 113    8:30   0.57   50.2    44    2.8   252     6.6   99999.0    0.00 
 113    8:40   0.62   48.9    48    6.0   264    14.9   99999.0    0.00 
 113    8:50   0.65   48.4    49    5.9   266    11.3   99999.0    0.00 
 113    9:00   0.68   49.5    47    4.7   263    11.3   99999.0    0.00 
 113    9:10   0.71   50.3    46    7.1   272    12.5   99999.0    0.00 
 113    9:20   0.74   50.4    46    7.4   272    13.7   99999.0    0.00 
 113    9:30   0.76   50.5    46    8.1   279    19.1   99999.0    0.00 
 113    9:40   0.79   51.0    44    7.0   271    11.9   99999.0    0.00 
 113    9:50   0.81   51.3    44    6.8   277    11.3   99999.0    0.00 
 113   10:00   0.83   51.6    43    6.3   275    10.8   99999.0    0.00 
 113   10:10   0.85   52.1    42    5.2   267    15.5   99999.0    0.00 
 113   10:20   0.87   53.5    41    5.5   264     9.6   99999.0    0.00 
 113   10:30   0.89   53.5    40    5.5   264    11.3   99999.0    0.00 
 113   10:40   0.90   53.6    40    3.9   262     7.8   99999.0    0.00 
 113   10:50   0.92   54.0    40    4.5   263     9.6   99999.0    0.00 
 113   11:00   0.93   54.7    38    6.2   264    13.1   99999.0    0.00 
 113   11:10   0.94   55.3    36    4.4   267     8.4   99999.0    0.00 
 113   11:20   0.95   56.0    34    7.1   261    13.1   99999.0    0.00 
 113   11:30   0.58   57.1    32    9.6   241    17.3   99999.0    0.00 
 113   11:40   0.42   57.3    31    8.9   271    17.3   99999.0    0.00 
 113   11:50   0.95   58.3    29    9.7   268    17.9   99999.0    0.00 
 113   12:00   0.95   58.5    30    7.0   268    14.3   99999.0    0.00 
 113   12:10   0.96   59.0    30    7.7   272    14.3   99999.0    0.00 
 113   12:20   0.97   58.9    29   10.1   277    20.3   99999.0    0.00 
 113   12:30   0.96   59.6    28    9.0   273    13.1   99999.0    0.00 
 113   12:40   0.96   59.2    28    6.4   273    16.1   99999.0    0.00 
 113   12:50   0.96   60.2    26    7.7   276    14.9   99999.0    0.00 
 113   13:00   0.95   60.3    25    5.9   266    15.5   99999.0    0.00 
 113   13:10   0.94   60.6    26    8.4   284    16.7   99999.0    0.00 
 113   13:20   0.93   61.0    25    7.2   279    20.3   99999.0    0.00 
 113   13:30   0.92   61.2    25    9.3   280    19.1   99999.0    0.00 
 113   13:40   0.91   61.6    25   10.6   287    17.3   99999.0    0.00 
 113   13:50   0.89   62.2    24    9.5   284    17.3   99999.0    0.00 
 113   14:00   0.88   62.2    24   11.5   291    19.7   99999.0    0.00 
 113   14:10   0.86   62.4    23   10.5   289    19.1   99999.0    0.00 
 113   14:20   0.83   62.5    24   11.9   310    20.3   99999.0    0.00 
 113   14:30   0.81   63.2    24    9.9   292    16.7   99999.0    0.00 
 113   14:40   0.79   63.7    23   11.0   300    17.9   99999.0    0.00 
 113   14:50   0.77   63.4    23   12.2   301    19.1   99999.0    0.00 
 113   15:00   0.74   63.8    23   11.1   275    20.9   99999.0    0.00 
 113   15:10   0.71   64.3    22   12.3   225    20.3   99999.0    0.00 
 113   15:20   0.68   64.5    23   10.6   251    18.5   99999.0    0.00 
 113   15:30   0.65   64.1    25    9.2   272    17.3   99999.0    0.00 
 113   15:40   0.62   63.0    26    7.5   276    14.9   99999.0    0.00 
 113   15:50   0.59   63.6    26    8.7   272    16.7   99999.0    0.00 
 113   16:00   0.56   62.9    26    7.7   280    14.3   99999.0    0.00 
 113   16:10   0.53   63.3    26    9.2   276    14.9   99999.0    0.00 
 113   16:20   0.49   63.6    26    8.1   275    16.7   99999.0    0.00 
 113   16:30   0.45   62.5    27    8.2   279    16.7   99999.0    0.00 
 113   16:40   0.37   61.6    28    7.1   282    13.1   99999.0    0.00 
 113   16:50   0.31   60.8    29    7.4   282    13.1   99999.0    0.00 
 113   17:00   0.26   60.3    30    5.9   278    10.8   99999.0    0.00 
 113   17:10   0.20   59.7    30    6.7   282    13.7   99999.0    0.00 
 113   17:20   0.24   59.9    30    6.3   278     9.6   99999.0    0.00 
 113   17:30   0.16   59.2    32    6.7   282    14.3   99999.0    0.00 
 113   17:40   0.22   59.1    32    6.6   278    14.9   99999.0    0.00 
 113   17:50   0.14   58.7    32    5.5   278    10.2   99999.0    0.00 
 113   18:00   0.10   57.8    33    6.3   280    10.8   99999.0    0.00 
 113   18:10   0.06   56.8    35    5.5   277    11.3   99999.0    0.00 
 113   18:20   0.04   56.1    36    5.3   279     9.6   99999.0    0.00 

Return to San Antonio, Valles Caldera graphs page.


Western Regional Climate Center,wrcc@dri.edu